Time;durP1;ratioP1;P1;durP2;ratioP2;P2;SDS_P1;SDS_P2;PMS_P1;PMS_P2;Temp;Humidity;BMP_temperature;BMP_pressure;BME280_temperature;BME280_humidity;BME280_pressure;Samples;Min_cycle;Max_cycle;Signal;HPM_P1;HPM_P2
2023/12/06 00:01:30;;;;;;;9.57;3.22;;;;;;;1.73;80.58;100265.78;5023295;28;20045;-49
2023/12/06 00:03:57;;;;;;;8.43;2.30;;;;;;;1.71;81.76;100259.72;5033697;28;20059;-43
2023/12/06 00:06:24;;;;;;;7.65;2.97;;;;;;;1.69;81.29;100258.78;5030945;28;20041;-42
2023/12/06 00:08:52;;;;;;;8.10;3.13;;;;;;;1.68;81.12;100262.16;5035468;28;20582;-44
2023/12/06 00:11:19;;;;;;;10.88;3.45;;;;;;;1.67;81.07;100257.88;5030529;28;20048;-47
2023/12/06 00:13:46;;;;;;;8.23;2.97;;;;;;;1.65;81.28;100262.03;5038931;28;20128;-54
2023/12/06 00:16:13;;;;;;;11.15;3.33;;;;;;;1.63;80.23;100263.69;5036140;28;20051;-49
2023/12/06 00:18:43;;;;;;;12.95;3.55;;;;;;;1.62;80.60;100255.13;5018962;28;20049;-44
2023/12/06 00:21:10;;;;;;;8.65;3.55;;;;;;;1.60;81.62;100263.56;5048247;28;20052;-44
2023/12/06 00:23:37;;;;;;;13.73;3.33;;;;;;;1.58;80.67;100260.09;5046948;28;20058;-46
2023/12/06 00:26:05;;;;;;;14.23;3.10;;;;;;;1.57;81.22;100258.34;5061163;28;20060;-43
2023/12/06 00:28:31;;;;;;;10.63;3.20;;;;;;;1.56;80.44;100261.72;5045261;28;20136;-48
2023/12/06 00:30:58;;;;;;;7.75;2.95;;;;;;;1.54;81.70;100265.09;5044536;28;20049;-51
2023/12/06 00:33:25;;;;;;;8.07;3.35;;;;;;;1.53;80.78;100263.31;5052805;28;20071;-46
2023/12/06 00:35:52;;;;;;;8.98;3.40;;;;;;;1.53;81.06;100272.69;5043115;28;20500;-46
2023/12/06 00:38:19;;;;;;;8.00;3.15;;;;;;;1.52;81.90;100282.00;5047526;28;20048;-46
2023/12/06 00:40:45;;;;;;;12.35;3.63;;;;;;;1.51;81.58;100270.06;5049249;28;20045;-50
2023/12/06 00:43:12;;;;;;;8.82;3.65;;;;;;;1.50;81.84;100270.00;5045922;28;20045;-41
2023/12/06 00:45:39;;;;;;;9.85;3.20;;;;;;;1.49;81.39;100264.00;5044303;28;20045;-46
2023/12/06 00:48:06;;;;;;;5.88;3.20;;;;;;;1.48;81.19;100264.84;5021955;28;20045;-48
2023/12/06 00:50:32;;;;;;;12.25;3.75;;;;;;;1.46;80.95;100269.03;5021852;28;20068;-46
2023/12/06 00:52:59;;;;;;;8.18;2.90;;;;;;;1.43;81.63;100266.34;5032802;28;20049;-46
2023/12/06 00:55:26;;;;;;;12.15;3.80;;;;;;;1.41;80.53;100275.63;5039967;28;20059;-42
2023/12/06 00:57:53;;;;;;;11.27;3.67;;;;;;;1.39;80.64;100274.72;5049596;28;20045;-43
2023/12/06 01:00:21;;;;;;;8.73;3.58;;;;;;;1.37;80.23;100278.88;5041283;28;20095;-47
2023/12/06 01:02:47;;;;;;;7.82;3.20;;;;;;;1.34;80.51;100276.19;5051888;28;20565;-48
2023/12/06 01:05:14;;;;;;;9.73;4.03;;;;;;;1.33;81.00;100277.00;5040162;28;20081;-44
2023/12/06 01:07:42;;;;;;;13.73;3.95;;;;;;;1.31;81.17;100282.06;5044202;28;20052;-45
2023/12/06 01:10:09;;;;;;;8.90;3.33;;;;;;;1.30;81.44;100284.53;5049415;28;20079;-52
2023/12/06 01:12:35;;;;;;;7.88;3.60;;;;;;;1.28;80.60;100285.38;5044239;28;20067;-46
2023/12/06 01:15:03;;;;;;;11.15;3.53;;;;;;;1.27;82.00;100285.31;5054751;28;20551;-50
2023/12/06 01:17:32;;;;;;;13.55;3.67;;;;;;;1.27;81.40;100290.41;5054334;28;20072;-48
2023/12/06 01:19:59;;;;;;;9.60;3.65;;;;;;;1.26;81.52;100287.00;5059941;28;20040;-46
2023/12/06 01:22:26;;;;;;;12.73;4.10;;;;;;;1.26;81.93;100296.34;5055503;28;20044;-49
2023/12/06 01:24:57;;;;;;;8.93;2.92;;;;;;;1.23;81.42;100289.44;5054014;28;20050;-53
2023/12/06 01:27:24;;;;;;;9.80;3.50;;;;;;;1.21;81.92;100285.09;5027409;28;20068;-44
2023/12/06 01:29:51;;;;;;;9.23;3.40;;;;;;;1.22;81.36;100287.66;5033928;28;20049;-41
2023/12/06 01:32:34;;;;;;;6.90;3.13;;;;;;;1.21;80.89;100285.09;5050778;28;20053;-46
2023/12/06 01:35:01;;;;;;;11.48;3.92;;;;;;;1.20;81.83;100289.31;5056413;28;20720;-47
2023/12/06 01:37:27;;;;;;;10.30;3.78;;;;;;;1.20;81.74;100284.19;5056311;28;20040;-48
2023/12/06 01:39:54;;;;;;;5.07;2.75;;;;;;;1.18;81.85;100293.47;5057395;28;20152;-47
2023/12/06 01:42:21;;;;;;;7.13;2.80;;;;;;;1.18;81.05;100280.69;5059361;28;20049;-47
2023/12/06 01:44:47;;;;;;;9.23;4.18;;;;;;;1.19;82.20;100297.78;5049351;28;20044;-52
2023/12/06 01:47:18;;;;;;;9.48;3.78;;;;;;;1.19;81.80;100295.22;5050392;28;20044;-52
2023/12/06 01:49:46;;;;;;;10.13;3.45;;;;;;;1.19;81.44;100294.34;5057532;28;20131;-39
2023/12/06 01:52:13;;;;;;;12.98;3.67;;;;;;;1.18;81.80;100285.81;5057530;28;20494;-45
2023/12/06 01:54:40;;;;;;;10.80;4.60;;;;;;;1.17;81.59;100286.63;5056802;28;22819;-48
2023/12/06 01:57:07;;;;;;;8.85;2.85;;;;;;;1.15;81.48;100280.59;5053119;28;20096;-53
2023/12/06 01:59:34;;;;;;;9.05;3.53;;;;;;;1.15;81.86;100280.59;5046166;28;20037;-46
2023/12/06 02:02:01;;;;;;;10.63;4.10;;;;;;;1.14;82.19;100283.94;5025618;28;20057;-52
2023/12/06 02:04:28;;;;;;;9.45;4.00;;;;;;;1.13;80.84;100283.09;5031970;28;20099;-45
2023/12/06 02:06:54;;;;;;;9.90;3.55;;;;;;;1.12;80.74;100280.47;5025170;28;20049;-51
2023/12/06 02:09:22;;;;;;;7.85;3.63;;;;;;;1.10;81.61;100271.88;5050809;28;20040;-49
2023/12/06 02:11:49;;;;;;;13.55;4.03;;;;;;;1.08;80.48;100273.53;5047479;28;20134;-48
2023/12/06 02:14:16;;;;;;;16.13;4.55;;;;;;;1.08;82.14;100276.91;5054358;28;20114;-47
2023/12/06 02:16:43;;;;;;;12.70;5.22;;;;;;;1.07;82.27;100276.84;5049869;28;20393;-51
2023/12/06 02:19:16;;;;;;;11.65;4.57;;;;;;;1.05;80.93;100276.81;5050503;28;20045;-47
2023/12/06 02:21:45;;;;;;;8.35;4.18;;;;;;;1.02;81.22;100280.09;5053675;28;20124;-42
2023/12/06 02:24:12;;;;;;;10.90;4.32;;;;;;;0.99;81.27;100274.91;5062218;28;20048;-45
2023/12/06 02:26:40;;;;;;;9.73;3.78;;;;;;;0.94;80.86;100271.28;5052865;28;20111;-42
2023/12/06 02:29:07;;;;;;;11.75;4.07;;;;;;;0.91;81.46;100271.13;5050731;28;20517;-49
2023/12/06 02:31:33;;;;;;;9.25;4.05;;;;;;;0.87;81.64;100266.72;5046108;28;20045;-44
2023/12/06 02:34:07;;;;;;;9.68;3.70;;;;;;;0.84;81.88;100266.63;5046924;28;20501;-49
2023/12/06 02:36:35;;;;;;;8.43;3.42;;;;;;;0.81;80.94;100269.06;5057482;28;20041;-46
2023/12/06 02:39:04;;;;;;;11.38;4.10;;;;;;;0.77;81.80;100271.47;5052102;28;20047;-47
2023/12/06 02:41:33;;;;;;;10.80;4.15;;;;;;;0.74;80.84;100267.91;5049502;28;20048;-46
2023/12/06 02:44:00;;;;;;;10.57;3.50;;;;;;;0.72;81.40;100269.53;5045797;28;20056;-46
2023/12/06 02:46:28;;;;;;;8.60;3.10;;;;;;;0.69;81.06;100265.19;5042981;28;20048;-46
2023/12/06 02:48:56;;;;;;;11.48;4.25;;;;;;;0.67;81.04;100266.78;5051860;28;20072;-46
2023/12/06 02:51:23;;;;;;;8.45;4.15;;;;;;;0.65;81.05;100268.44;5054455;28;20049;-44
2023/12/06 02:53:51;;;;;;;10.32;4.05;;;;;;;0.63;81.83;100270.91;5047633;28;20045;-54
2023/12/06 02:56:18;;;;;;;11.32;3.95;;;;;;;0.62;80.51;100269.19;5047971;28;20512;-52
2023/12/06 02:58:44;;;;;;;7.93;3.72;;;;;;;0.62;81.61;100270.84;5039006;28;20048;-47
2023/12/06 03:01:11;;;;;;;14.70;4.43;;;;;;;0.61;81.31;100276.75;5047522;28;20053;-49
2023/12/06 03:03:38;;;;;;;12.10;4.38;;;;;;;0.58;80.78;100276.63;5039529;28;20056;-46
2023/12/06 03:06:05;;;;;;;12.18;4.57;;;;;;;0.56;80.72;100271.47;5026053;28;20052;-44
2023/12/06 03:08:32;;;;;;;9.50;3.63;;;;;;;0.55;81.88;100268.84;5035487;28;20065;-44
2023/12/06 03:10:59;;;;;;;8.70;4.13;;;;;;;0.53;80.57;100266.22;5028426;28;20050;-44
2023/12/06 03:13:25;;;;;;;11.70;5.03;;;;;;;0.53;81.79;100273.03;5036373;28;20049;-48
2023/12/06 03:15:52;;;;;;;15.23;4.60;;;;;;;0.50;80.97;100266.97;5035357;28;20046;-46
2023/12/06 03:18:19;;;;;;;13.23;4.50;;;;;;;0.49;81.91;100262.69;5027594;28;20542;-49
2023/12/06 03:20:46;;;;;;;12.20;4.53;;;;;;;0.47;81.58;100264.28;5053484;28;20052;-49
2023/12/06 03:23:13;;;;;;;11.93;4.10;;;;;;;0.48;81.48;100265.19;5053116;28;20044;-52
2023/12/06 03:25:40;;;;;;;9.27;3.97;;;;;;;0.47;80.81;100263.44;5049811;28;20045;-50
2023/12/06 03:28:07;;;;;;;15.82;3.95;;;;;;;0.45;82.00;100270.13;5055846;28;20041;-44
2023/12/06 03:30:34;;;;;;;10.27;4.55;;;;;;;0.43;80.93;100264.97;5050200;28;20045;-42
2023/12/06 03:33:03;;;;;;;9.63;4.68;;;;;;;0.42;81.26;100260.69;5050888;28;20473;-47
2023/12/06 03:35:30;;;;;;;14.07;4.55;;;;;;;0.40;81.47;100269.94;5049325;28;20095;-43
2023/12/06 03:37:56;;;;;;;10.57;4.20;;;;;;;0.40;80.92;100271.63;5030859;28;20052;-47
2023/12/06 03:40:23;;;;;;;11.18;4.28;;;;;;;0.37;81.95;100267.25;5033902;28;20044;-45
2023/12/06 03:42:51;;;;;;;24.58;4.82;;;;;;;0.35;80.89;100268.88;5057452;28;20045;-49
2023/12/06 03:45:17;;;;;;;12.80;4.70;;;;;;;0.35;80.77;100268.88;5049930;28;20055;-42
2023/12/06 03:47:45;;;;;;;9.73;4.53;;;;;;;0.31;81.58;100264.47;5043134;28;20069;-49
2023/12/06 03:50:12;;;;;;;11.38;4.38;;;;;;;0.28;80.81;100272.84;5042510;28;20106;-50
2023/12/06 03:52:39;;;;;;;10.55;4.72;;;;;;;0.27;81.84;100275.31;5043075;28;20331;-41
2023/12/06 03:55:06;;;;;;;13.38;4.55;;;;;;;0.24;80.81;100271.81;5042892;28;20061;-45
2023/12/06 03:57:32;;;;;;;9.20;3.70;;;;;;;0.23;80.83;100282.84;5018909;28;20037;-43
2023/12/06 03:59:59;;;;;;;10.43;4.72;;;;;;;0.20;80.73;100269.97;5033942;28;20045;-46
2023/12/06 04:02:26;;;;;;;10.40;4.47;;;;;;;0.19;81.58;100272.44;5045499;28;20052;-41
2023/12/06 04:04:53;;;;;;;14.25;4.35;;;;;;;0.17;80.90;100262.19;5028097;28;20050;-45
2023/12/06 04:07:19;;;;;;;10.20;4.45;;;;;;;0.16;81.18;100268.09;5021399;28;20049;-46
2023/12/06 04:09:47;;;;;;;11.00;5.07;;;;;;;0.16;81.00;100270.63;5034196;28;20132;-45
2023/12/06 04:12:14;;;;;;;11.95;5.35;;;;;;;0.15;81.35;100271.44;5044077;28;20040;-46
2023/12/06 04:14:41;;;;;;;9.32;4.38;;;;;;;0.14;81.30;100269.72;5034376;28;20539;-46
2023/12/06 04:17:07;;;;;;;11.68;4.15;;;;;;;0.12;80.94;100269.63;5029277;28;20073;-45
2023/12/06 04:19:34;;;;;;;13.93;4.15;;;;;;;0.10;80.97;100272.94;5022381;28;20083;-44
2023/12/06 04:22:01;;;;;;;11.57;4.03;;;;;;;0.08;81.30;100279.63;5018705;28;20136;-46
2023/12/06 04:24:28;;;;;;;10.45;4.63;;;;;;;0.07;81.51;100277.88;5033458;28;20466;-46
2023/12/06 04:26:55;;;;;;;15.57;5.88;;;;;;;0.05;81.52;100279.47;5019020;28;23084;-47
2023/12/06 04:29:21;;;;;;;10.02;4.63;;;;;;;0.04;80.86;100285.38;5040423;28;20053;-46
2023/12/06 04:31:49;;;;;;;11.95;4.40;;;;;;;0.01;81.59;100282.69;5025595;28;20041;-54
2023/12/06 04:34:16;;;;;;;9.40;4.28;;;;;;;-0.02;81.34;100284.31;5022506;28;20546;-43
2023/12/06 04:36:43;;;;;;;12.38;4.30;;;;;;;-0.04;80.83;100285.91;5027180;28;20054;-45
2023/12/06 04:39:09;;;;;;;10.07;3.80;;;;;;;-0.05;81.53;100289.28;5030496;28;20049;-51
2023/12/06 04:41:36;;;;;;;11.10;4.55;;;;;;;-0.06;81.42;100281.56;5035967;28;20106;-52
2023/12/06 04:44:03;;;;;;;11.32;4.40;;;;;;;-0.06;81.78;100281.56;5037543;28;20526;-48
2023/12/06 04:46:30;;;;;;;13.63;4.38;;;;;;;-0.07;81.95;100280.69;5044725;28;20048;-47
2023/12/06 04:48:56;;;;;;;12.05;4.57;;;;;;;-0.06;81.56;100291.75;5043025;28;20053;-45
2023/12/06 04:51:23;;;;;;;8.80;3.75;;;;;;;-0.07;81.22;100293.41;5048522;28;20131;-41
2023/12/06 04:53:50;;;;;;;11.38;4.47;;;;;;;-0.10;81.85;100288.19;5026929;28;20156;-43
2023/12/06 04:56:17;;;;;;;13.30;4.90;;;;;;;-0.11;81.91;100298.31;5034244;28;20049;-48
2023/12/06 04:58:44;;;;;;;13.40;4.35;;;;;;;-0.13;81.06;100295.72;5022079;28;20091;-49
2023/12/06 05:01:10;;;;;;;14.48;5.35;;;;;;;-0.14;81.35;100296.50;5033554;28;20045;-47
2023/12/06 05:03:38;;;;;;;9.82;4.55;;;;;;;-0.14;82.00;100293.94;5021736;28;20057;-44
2023/12/06 05:06:05;;;;;;;19.40;5.05;;;;;;;-0.14;81.69;100299.03;5022350;28;20053;-48
2023/12/06 05:08:31;;;;;;;12.27;5.28;;;;;;;-0.18;81.15;100297.16;5018148;28;20058;-51
2023/12/06 05:10:58;;;;;;;15.27;5.00;;;;;;;-0.21;81.58;100297.88;5026081;28;20126;-45
2023/12/06 05:13:26;;;;;;;13.02;4.75;;;;;;;-0.22;81.07;100298.69;5036761;28;20047;-48
2023/12/06 05:15:53;;;;;;;16.92;4.75;;;;;;;-0.23;81.03;100299.50;5041763;28;20805;-39
2023/12/06 05:18:19;;;;;;;12.65;4.43;;;;;;;-0.26;81.62;100305.31;5035307;28;20052;-48
2023/12/06 05:20:46;;;;;;;13.27;4.47;;;;;;;-0.27;81.70;100316.31;5037300;28;20056;-48
2023/12/06 05:23:13;;;;;;;10.70;4.05;;;;;;;-0.29;81.50;100300.09;5042539;28;20079;-48
2023/12/06 05:25:41;;;;;;;10.73;4.45;;;;;;;-0.29;81.67;100306.84;5049436;28;20049;-48
2023/12/06 05:28:08;;;;;;;11.15;4.75;;;;;;;-0.28;81.27;100309.47;5041243;28;20048;-44
2023/12/06 05:30:34;;;;;;;16.02;4.63;;;;;;;-0.29;81.13;100312.84;5023152;28;20073;-47
2023/12/06 05:33:02;;;;;;;14.93;5.45;;;;;;;-0.30;81.40;100300.88;5029900;28;20132;-42
2023/12/06 05:35:28;;;;;;;14.82;6.15;;;;;;;-0.32;81.70;100310.13;5027796;28;20044;-45
2023/12/06 05:37:55;;;;;;;15.65;4.30;;;;;;;-0.34;81.79;100301.56;5037022;28;20512;-41
2023/12/06 05:40:22;;;;;;;13.48;5.07;;;;;;;-0.35;81.73;100310.00;5032277;28;20056;-44
2023/12/06 05:42:48;;;;;;;11.75;4.93;;;;;;;-0.37;81.41;100303.97;5029814;28;20979;-44
2023/12/06 05:45:16;;;;;;;15.32;4.68;;;;;;;-0.38;81.02;100299.66;5032716;28;20094;-41
2023/12/06 05:47:43;;;;;;;16.42;4.85;;;;;;;-0.40;81.72;100302.13;5046317;28;20056;-41
2023/12/06 05:50:12;;;;;;;15.40;5.78;;;;;;;-0.41;81.69;100308.03;5043701;28;20075;-44
2023/12/06 05:52:39;;;;;;;18.35;5.00;;;;;;;-0.42;81.10;100295.25;5043504;28;20139;-44
2023/12/06 05:55:07;;;;;;;13.93;6.05;;;;;;;-0.42;81.62;100302.88;5049149;28;20053;-49
2023/12/06 05:57:33;;;;;;;13.95;5.35;;;;;;;-0.44;81.87;100304.50;5045969;28;20072;-48
2023/12/06 06:00:00;;;;;;;19.25;5.10;;;;;;;-0.45;81.24;100308.69;5046428;28;20064;-43
2023/12/06 06:02:27;;;;;;;12.93;4.43;;;;;;;-0.45;81.52;100312.91;5042236;28;20056;-46
2023/12/06 06:04:54;;;;;;;14.45;5.15;;;;;;;-0.48;81.66;100312.78;5044044;28;20053;-43
2023/12/06 06:07:20;;;;;;;11.13;5.03;;;;;;;-0.48;81.80;100320.44;5032070;28;20538;-46
2023/12/06 06:09:48;;;;;;;15.13;5.90;;;;;;;-0.50;81.49;100309.28;5027221;28;20513;-49
2023/12/06 06:12:24;;;;;;;11.65;4.93;;;;;;;-0.51;81.76;100308.41;5034259;28;20045;-42
2023/12/06 06:14:51;;;;;;;11.00;4.57;;;;;;;-0.52;81.25;100311.75;5050936;28;20045;-45
2023/12/06 06:17:18;;;;;;;12.43;4.65;;;;;;;-0.54;81.61;100314.22;5017458;28;20455;-48
2023/12/06 06:19:45;;;;;;;13.63;5.38;;;;;;;-0.56;81.66;100315.84;5030166;28;20136;-49
2023/12/06 06:22:11;;;;;;;14.23;5.15;;;;;;;-0.57;81.47;100321.72;5019949;28;20049;-45
2023/12/06 06:24:38;;;;;;;15.40;5.05;;;;;;;-0.56;81.48;100325.13;5033352;28;20049;-44
2023/12/06 06:27:05;;;;;;;18.13;5.00;;;;;;;-0.56;81.86;100328.56;5019941;28;20104;-46
2023/12/06 06:29:31;;;;;;;11.00;4.68;;;;;;;-0.57;81.23;100328.50;5028356;28;20045;-44
2023/12/06 06:31:58;;;;;;;11.68;4.70;;;;;;;-0.58;81.82;100332.69;5034776;28;20053;-41
2023/12/06 06:34:25;;;;;;;13.00;5.10;;;;;;;-0.59;81.87;100330.97;5031262;28;20053;-41
2023/12/06 06:36:52;;;;;;;13.05;5.55;;;;;;;-0.60;81.28;100336.88;5043552;28;20504;-42
2023/12/06 06:39:18;;;;;;;14.68;5.03;;;;;;;-0.60;81.64;100335.97;5045489;28;20040;-47
2023/12/06 06:41:46;;;;;;;12.15;5.43;;;;;;;-0.61;81.85;100332.56;5032103;28;20067;-47
2023/12/06 06:44:13;;;;;;;15.30;6.22;;;;;;;-0.62;81.51;100333.34;5052750;28;20072;-41
2023/12/06 06:46:39;;;;;;;43.70;15.73;;;;;;;-0.63;81.28;100339.25;5039865;28;20037;-46
2023/12/06 06:49:06;;;;;;;23.48;8.95;;;;;;;-0.64;81.80;100337.50;5053162;28;20048;-48
2023/12/06 06:51:35;;;;;;;19.02;7.53;;;;;;;-0.64;81.63;100342.59;5042547;28;20045;-42
2023/12/06 06:54:03;;;;;;;34.38;10.85;;;;;;;-0.64;81.93;100337.50;5040405;28;20056;-42
2023/12/06 06:56:30;;;;;;;11.48;5.47;;;;;;;-0.67;81.65;100325.50;5037403;28;20052;-44
2023/12/06 06:58:57;;;;;;;16.00;7.13;;;;;;;-0.66;81.41;100323.84;5034684;28;20498;-45
2023/12/06 07:01:24;;;;;;;13.65;5.85;;;;;;;-0.67;81.78;100322.09;5036613;28;20109;-46
2023/12/06 07:03:51;;;;;;;16.58;7.13;;;;;;;-0.68;81.54;100331.41;5038922;28;20114;-44
2023/12/06 07:06:18;;;;;;;16.35;6.40;;;;;;;-0.68;81.73;100338.13;5040470;28;20049;-44
2023/12/06 07:08:45;;;;;;;12.75;6.47;;;;;;;-0.67;82.08;100342.47;5039343;28;20041;-51
2023/12/06 07:11:12;;;;;;;15.57;5.15;;;;;;;-0.69;81.91;100338.94;5039308;28;20049;-44
2023/12/06 07:13:39;;;;;;;21.10;8.70;;;;;;;-0.70;81.72;100329.59;5038868;28;20422;-45
2023/12/06 07:16:06;;;;;;;12.70;5.18;;;;;;;-0.69;81.61;100333.84;5041430;28;20049;-47
2023/12/06 07:18:33;;;;;;;17.45;5.38;;;;;;;-0.69;82.09;100338.94;5051639;28;20044;-44
2023/12/06 07:21:00;;;;;;;14.48;5.72;;;;;;;-0.71;81.50;100332.94;5045063;28;20080;-44
2023/12/06 07:23:27;;;;;;;12.25;5.55;;;;;;;-0.73;81.57;100324.34;5038041;28;20055;-49
2023/12/06 07:25:55;;;;;;;19.08;4.93;;;;;;;-0.73;81.70;100331.97;5037840;28;20778;-43
2023/12/06 07:28:22;;;;;;;16.90;5.82;;;;;;;-0.74;81.49;100330.22;5038366;28;20048;-49
2023/12/06 07:30:48;;;;;;;13.50;5.30;;;;;;;-0.76;81.32;100335.25;5034804;28;20063;-50
2023/12/06 07:33:15;;;;;;;20.25;6.03;;;;;;;-0.75;81.85;100338.69;5046788;28;20068;-47
2023/12/06 07:35:42;;;;;;;18.63;5.97;;;;;;;-0.76;81.63;100336.91;5040142;28;20049;-41
2023/12/06 07:38:11;;;;;;;13.10;5.15;;;;;;;-0.75;81.73;100343.75;5039944;28;20045;-45
2023/12/06 07:40:37;;;;;;;13.75;4.78;;;;;;;-0.75;81.75;100348.84;5038222;28;20135;-44
2023/12/06 07:43:04;;;;;;;13.45;5.97;;;;;;;-0.76;81.49;100347.09;5037583;28;20052;-41
2023/12/06 07:45:31;;;;;;;14.25;4.82;;;;;;;-0.76;81.80;100347.97;5037427;28;20041;-46
2023/12/06 07:47:58;;;;;;;10.82;4.38;;;;;;;-0.76;81.52;100352.16;5039519;28;20057;-48
2023/12/06 07:50:25;;;;;;;9.88;5.13;;;;;;;-0.74;81.51;100345.50;5037851;28;20052;-52
2023/12/06 07:52:53;;;;;;;13.60;5.30;;;;;;;-0.74;82.15;100358.22;5034269;28;20055;-42
2023/12/06 07:55:21;;;;;;;13.30;6.30;;;;;;;-0.75;82.18;100353.94;5038464;28;20059;-44
2023/12/06 07:57:51;;;;;;;14.85;5.15;;;;;;;-0.75;81.95;100357.34;5045676;28;20068;-45
2023/12/06 08:00:19;;;;;;;13.25;5.20;;;;;;;-0.74;81.60;100353.13;5049875;28;20053;-44
2023/12/06 08:02:46;;;;;;;14.57;4.95;;;;;;;-0.75;82.28;100346.31;5044526;28;20455;-45
2023/12/06 08:05:14;;;;;;;17.23;5.15;;;;;;;-0.75;81.80;100349.69;5034437;28;20147;-44
2023/12/06 08:07:41;;;;;;;16.10;5.63;;;;;;;-0.73;81.85;100347.25;5046437;28;20053;-41
2023/12/06 08:10:12;;;;;;;12.40;4.82;;;;;;;-0.72;81.88;100344.78;5047572;28;20137;-46
2023/12/06 08:12:39;;;;;;;18.08;5.63;;;;;;;-0.69;82.01;100350.00;5042053;28;20095;-45
2023/12/06 08:15:07;;;;;;;13.77;5.40;;;;;;;-0.62;82.09;100348.63;5045391;28;20062;-43
2023/12/06 08:17:34;;;;;;;15.23;5.95;;;;;;;-0.54;81.88;100342.22;5033660;28;20061;-48
2023/12/06 08:20:01;;;;;;;11.75;5.13;;;;;;;-0.42;81.95;100348.69;5029795;28;20053;-43
2023/12/06 08:22:28;;;;;;;11.43;4.95;;;;;;;-0.33;82.81;100349.13;5027427;28;20075;-48
2023/12/06 08:24:57;;;;;;;11.60;5.15;;;;;;;-0.24;82.85;100342.72;5045470;28;20056;-52
2023/12/06 08:27:27;;;;;;;15.60;6.32;;;;;;;-0.12;82.09;100338.19;5031368;28;20048;-42
2023/12/06 08:29:55;;;;;;;14.32;5.50;;;;;;;0.09;82.77;100352.69;5059459;28;20040;-43
2023/12/06 08:32:22;;;;;;;12.25;5.38;;;;;;;0.35;82.60;100355.50;5054709;28;20049;-44
2023/12/06 08:34:50;;;;;;;13.48;5.28;;;;;;;0.60;82.36;100356.56;5052836;28;20053;-44
2023/12/06 08:37:17;;;;;;;21.77;5.20;;;;;;;0.88;82.10;100360.31;5041830;28;20714;-47
2023/12/06 08:39:45;;;;;;;14.80;5.60;;;;;;;1.17;81.46;100355.53;5022490;28;20046;-44
2023/12/06 08:42:14;;;;;;;14.90;5.45;;;;;;;1.50;82.29;100350.03;5034420;28;20436;-41
2023/12/06 08:44:42;;;;;;;15.40;5.53;;;;;;;1.88;82.08;100366.75;5027231;28;20151;-46
2023/12/06 08:47:10;;;;;;;46.42;13.02;;;;;;;2.04;81.50;100363.97;5038183;28;20049;-44
2023/12/06 08:49:38;;;;;;;56.92;17.83;;;;;;;2.21;81.07;100370.50;5050880;28;20049;-45
2023/12/06 08:52:06;;;;;;;29.67;9.93;;;;;;;2.41;81.16;100353.34;5069424;28;20051;-44
2023/12/06 08:54:38;;;;;;;33.20;10.65;;;;;;;2.69;81.69;100354.28;5053957;28;20567;-48
2023/12/06 08:57:06;;;;;;;35.05;11.75;;;;;;;3.06;81.50;100344.44;5057939;28;20075;-41
2023/12/06 08:59:33;;;;;;;22.65;7.75;;;;;;;3.67;81.27;100348.88;5047778;28;20541;-54
2023/12/06 09:02:00;;;;;;;16.83;6.50;;;;;;;4.37;81.14;100343.19;5054681;28;20099;-45
2023/12/06 09:04:27;;;;;;;19.33;7.68;;;;;;;5.14;80.70;100353.72;5039614;28;20049;-46
2023/12/06 09:06:54;;;;;;;16.98;7.38;;;;;;;5.95;80.78;100362.38;5059923;28;20049;-48
2023/12/06 09:09:20;;;;;;;22.40;8.00;;;;;;;6.72;78.81;100359.63;5048435;28;20056;-45
2023/12/06 09:11:47;;;;;;;17.67;7.45;;;;;;;7.33;78.67;100353.78;5048922;28;20059;-43
2023/12/06 09:14:17;;;;;;;17.65;6.88;;;;;;;7.76;77.78;100348.34;5047265;28;20154;-43
2023/12/06 09:16:43;;;;;;;210.18;14.82;;;;;;;8.17;76.55;100348.88;5049000;28;20148;-50
2023/12/06 09:19:10;;;;;;;61.17;8.55;;;;;;;8.59;76.86;100350.25;5044452;28;20049;-47
2023/12/06 09:21:40;;;;;;;44.92;7.88;;;;;;;9.16;76.69;100350.72;5042073;28;20149;-49
2023/12/06 09:24:10;;;;;;;112.00;10.80;;;;;;;9.85;75.85;100354.63;5029642;28;20053;-50
2023/12/06 09:26:37;;;;;;;75.20;9.60;;;;;;;10.48;75.21;100351.47;5043849;28;20268;-44
2023/12/06 09:29:06;;;;;;;29.80;8.80;;;;;;;11.10;74.40;100354.97;5039789;28;20041;-46
2023/12/06 09:31:33;;;;;;;21.55;8.63;;;;;;;11.66;74.42;100354.94;5027198;28;20529;-43
2023/12/06 09:34:00;;;;;;;32.08;9.82;;;;;;;12.21;73.14;100358.22;5038484;28;20081;-50
2023/12/06 09:36:28;;;;;;;27.30;9.27;;;;;;;12.74;72.41;100352.75;5027758;28;20496;-45
2023/12/06 09:39:00;;;;;;;41.25;10.20;;;;;;;13.21;72.80;100362.78;5022633;28;20136;-47
2023/12/06 09:41:28;;;;;;;184.30;15.23;;;;;;;13.68;71.68;100362.38;5045231;28;20043;-47
2023/12/06 09:43:56;;;;;;;45.20;8.77;;;;;;;14.14;71.29;100348.81;5059477;28;20080;-47
2023/12/06 09:46:24;;;;;;;66.10;8.82;;;;;;;14.64;70.08;100355.97;5044777;28;20537;-48
2023/12/06 09:48:52;;;;;;;239.90;13.30;;;;;;;15.07;69.65;100361.44;5052745;28;20048;-46
2023/12/06 09:51:20;;;;;;;129.38;11.48;;;;;;;15.50;68.83;100362.41;5049657;28;20048;-46
2023/12/06 09:53:47;;;;;;;177.43;12.73;;;;;;;15.91;68.73;100361.66;5046568;28;20048;-54
2023/12/06 09:56:14;;;;;;;67.55;9.30;;;;;;;16.26;67.68;100356.63;5033809;28;20045;-47
2023/12/06 09:58:43;;;;;;;81.57;9.93;;;;;;;16.59;66.86;100364.63;5032879;28;20080;-42
2023/12/06 10:01:10;;;;;;;687.60;27.95;;;;;;;16.77;67.33;100365.97;5034506;28;20255;-45
2023/12/06 10:03:38;;;;;;;44.72;10.20;;;;;;;16.93;67.08;100358.56;5046411;28;20080;-49
2023/12/06 10:06:05;;;;;;;151.85;31.70;;;;;;;17.07;65.93;100360.03;5023579;28;20122;-44
2023/12/06 10:08:33;;;;;;;68.22;24.63;;;;;;;17.06;65.48;100355.72;5033457;28;20115;-50
2023/12/06 10:11:05;;;;;;;49.55;16.20;;;;;;;17.13;65.79;100354.66;5025876;28;20518;-44
2023/12/06 10:16:14;;;;;;;590.25;32.03;;;;;;;17.72;64.11;100362.72;5027930;28;20969;-49
2023/12/06 10:18:41;;;;;;;608.25;30.23;;;;;;;17.98;63.07;100364.63;4980253;28;20051;-43
2023/12/06 10:21:09;;;;;;;1074.18;46.55;;;;;;;18.14;62.25;100364.22;4980074;28;20120;-45
2023/12/06 10:23:35;;;;;;;31.70;8.45;;;;;;;18.22;60.71;100354.38;4986362;28;20053;-52
2023/12/06 10:26:05;;;;;;;15.30;6.65;;;;;;;18.26;59.70;100352.50;4984623;28;20058;-50
2023/12/06 10:28:35;;;;;;;17.70;8.52;;;;;;;18.20;58.11;100337.81;4974056;28;20050;-42
2023/12/06 10:31:03;;;;;;;28.85;8.75;;;;;;;18.02;57.13;100341.81;4980482;28;20061;-44
2023/12/06 10:33:31;;;;;;;43.30;7.85;;;;;;;17.67;57.17;100338.44;4979403;28;20101;-50
2023/12/06 10:36:00;;;;;;;11.80;6.53;;;;;;;17.09;56.29;100339.91;4968834;28;20078;-42
2023/12/06 10:38:28;;;;;;;202.00;13.85;;;;;;;16.55;56.91;100334.22;4990419;28;20115;-48
2023/12/06 10:40:58;;;;;;;271.73;16.02;;;;;;;15.91;57.27;100331.16;4979343;28;20141;-44
2023/12/06 10:43:26;;;;;;;;;;;;;;;14.97;57.92;100339.84;4985798;28;20054;-44
2023/12/06 10:45:53;;;;;;;33.50;7.78;;;;;;;14.55;59.37;100337.84;4985270;28;19922;-44
2023/12/06 10:48:21;;;;;;;14.13;6.50;;;;;;;13.93;59.23;100336.06;4977899;28;20059;-44
2023/12/06 10:50:50;;;;;;;14.27;6.53;;;;;;;13.35;59.62;100334.88;4983595;28;20042;-50
2023/12/06 10:53:17;;;;;;;11.10;5.38;;;;;;;13.05;60.83;100326.50;4975514;28;20050;-47
2023/12/06 10:55:46;;;;;;;11.00;4.82;;;;;;;12.93;60.11;100332.66;4976290;28;20627;-45
2023/12/06 10:58:15;;;;;;;15.07;6.15;;;;;;;12.55;60.70;100329.47;4978237;28;20051;-47
2023/12/06 11:00:43;;;;;;;15.32;6.35;;;;;;;12.10;61.28;100323.66;4977442;28;20149;-45
2023/12/06 11:03:10;;;;;;;14.63;6.53;;;;;;;11.66;61.60;100326.38;4983493;28;20760;-48
2023/12/06 11:05:44;;;;;;;14.55;6.85;;;;;;;11.18;61.18;100317.81;4976296;28;20042;-41
2023/12/06 11:08:38;;;;;;;17.95;7.63;;;;;;;10.65;62.30;100316.94;4985160;28;20049;-51
2023/12/06 11:11:45;;;;;;;15.80;7.30;;;;;;;10.29;63.25;100315.13;4981244;28;20495;-45
2023/12/06 11:17:06;;;;;;;18.33;5.90;;;;;;;9.86;63.65;100304.63;5028863;28;20963;-50
2023/12/06 11:19:35;;;;;;;16.33;6.97;;;;;;;9.54;64.52;100310.47;4997731;28;20053;-48
2023/12/06 11:22:03;;;;;;;14.25;7.40;;;;;;;9.32;65.18;100307.78;4998076;28;20133;-47
2023/12/06 11:24:30;;;;;;;14.82;6.53;;;;;;;9.25;66.18;100312.91;4997310;28;20069;-50
2023/12/06 11:26:57;;;;;;;12.35;6.32;;;;;;;9.21;66.61;100312.84;5000265;28;20089;-46
2023/12/06 11:29:24;;;;;;;12.68;5.55;;;;;;;9.10;66.60;100313.66;5001156;28;20050;-45